Time;durP1;ratioP1;P1;durP2;ratioP2;P2;SDS_P1;SDS_P2;PMS_P1;PMS_P2;Temp;Humidity;BMP_temperature;BMP_pressure;BME280_temperature;BME280_humidity;BME280_pressure;Samples;Min_cycle;Max_cycle;Signal;HPM_P1;HPM_P2
2022/03/22 00:02:56;;;;;;;11.07;7.20;;;;;;;;;;5031598;28;20543;-85
2022/03/22 00:06:00;;;;;;;13.53;7.97;;;;;;;;;;5042558;28;20642;-85
2022/03/22 00:09:04;;;;;;;9.30;6.53;;;;;;;;;;5042433;28;20551;-85
2022/03/22 00:12:09;;;;;;;13.10;7.73;;;;;;;;;;5042667;28;20539;-85
2022/03/22 00:15:13;;;;;;;16.83;10.13;;;;;;;;;;5031236;28;20547;-85
2022/03/22 00:18:19;;;;;;;17.27;9.10;;;;;;;;;;5031378;28;20599;-85
2022/03/22 00:21:22;;;;;;;15.63;9.60;;;;;;;;;;5042371;28;20531;-85
2022/03/22 00:24:28;;;;;;;14.33;9.33;;;;;;;;;;5042508;28;20551;-85
2022/03/22 00:27:52;;;;;;;16.20;8.90;;;;;;;;;;5042471;28;20543;-85
2022/03/22 00:30:56;;;;;;;10.83;6.47;;;;;;;;;;5053308;28;20888;-85
2022/03/22 00:34:01;;;;;;;11.47;7.23;;;;;;;;;;5031072;28;20532;-85
2022/03/22 00:37:05;;;;;;;12.63;8.40;;;;;;;;;;5042201;28;20637;-85
2022/03/22 00:40:13;;;;;;;15.00;10.27;;;;;;;;;;5042237;28;20586;-85
2022/03/22 00:43:17;;;;;;;16.77;9.57;;;;;;;;;;5031239;28;20548;-85
2022/03/22 00:46:21;;;;;;;15.27;9.97;;;;;;;;;;5030915;28;20614;-85
2022/03/22 00:49:26;;;;;;;17.70;10.73;;;;;;;;;;5041677;28;20535;-85
2022/03/22 00:52:31;;;;;;;17.80;11.13;;;;;;;;;;5030330;28;20619;-85
2022/03/22 00:55:37;;;;;;;18.23;10.97;;;;;;;;;;5030846;28;20629;-85
2022/03/22 00:58:41;;;;;;;16.30;9.67;;;;;;;;;;5030707;28;20653;-85
2022/03/22 01:01:45;;;;;;;15.50;10.53;;;;;;;;;;5032604;28;20602;-87
2022/03/22 01:04:49;;;;;;;19.37;10.80;;;;;;;;;;5035941;28;20598;-87
2022/03/22 01:07:59;;;;;;;15.70;9.97;;;;;;;;;;4949932;23;20705;-85
2022/03/22 01:11:03;;;;;;;14.43;8.90;;;;;;;;;;4998522;28;20544;-86
2022/03/22 01:14:07;;;;;;;14.27;8.97;;;;;;;;;;4940795;29;20548;-86
2022/03/22 01:17:12;;;;;;;12.90;8.73;;;;;;;;;;4995407;28;20619;-86
2022/03/22 01:20:20;;;;;;;16.57;10.07;;;;;;;;;;5043861;28;20537;-86
2022/03/22 01:23:24;;;;;;;16.43;10.70;;;;;;;;;;5032267;28;20563;-86
2022/03/22 01:26:29;;;;;;;17.90;9.77;;;;;;;;;;5021194;28;20630;-86
2022/03/22 01:29:33;;;;;;;15.50;10.37;;;;;;;;;;5032458;28;20890;-86
2022/03/22 01:32:38;;;;;;;18.80;9.93;;;;;;;;;;5032203;28;20564;-87
2022/03/22 01:36:00;;;;;;;16.30;9.87;;;;;;;;;;5033029;28;20876;-86
2022/03/22 01:39:04;;;;;;;17.83;10.00;;;;;;;;;;5032667;28;20595;-86
2022/03/22 01:42:08;;;;;;;15.00;8.43;;;;;;;;;;5009947;28;20556;-87
2022/03/22 01:45:13;;;;;;;13.63;8.17;;;;;;;;;;5036192;28;20556;-86
2022/03/22 01:48:17;;;;;;;15.47;8.27;;;;;;;;;;5035783;28;20868;-86
2022/03/22 01:51:22;;;;;;;22.93;8.13;;;;;;;;;;5035991;28;20543;-86
2022/03/22 01:54:26;;;;;;;12.37;7.63;;;;;;;;;;5024438;28;20540;-87
2022/03/22 01:57:33;;;;;;;13.57;8.00;;;;;;;;;;5024074;28;20623;-87
2022/03/22 02:00:37;;;;;;;12.93;8.13;;;;;;;;;;5024038;28;20548;-86
2022/03/22 02:07:08;;;;;;;12.03;7.67;;;;;;;;;;5035202;28;20638;-86
2022/03/22 02:10:13;;;;;;;11.17;7.10;;;;;;;;;;5046880;28;20540;-87
2022/03/22 02:13:18;;;;;;;13.50;7.77;;;;;;;;;;5035898;28;20544;-87
2022/03/22 02:16:22;;;;;;;12.43;6.87;;;;;;;;;;5023701;28;20618;-86
2022/03/22 02:19:26;;;;;;;10.97;6.40;;;;;;;;;;5023919;28;20599;-87
2022/03/22 02:22:41;;;;;;;8.50;6.07;;;;;;;;;;5035438;28;20555;-86
2022/03/22 02:25:49;;;;;;;11.97;6.97;;;;;;;;;;5023799;28;20547;-86
2022/03/22 02:28:53;;;;;;;10.70;6.40;;;;;;;;;;5035226;28;20536;-86
2022/03/22 02:31:58;;;;;;;8.63;6.33;;;;;;;;;;5034726;28;20599;-86
2022/03/22 02:35:04;;;;;;;10.70;7.30;;;;;;;;;;5023349;28;20603;-87
2022/03/22 02:38:09;;;;;;;10.73;6.57;;;;;;;;;;5023662;28;20544;-87
2022/03/22 02:41:19;;;;;;;8.43;5.80;;;;;;;;;;5023672;28;20544;-87
2022/03/22 02:44:22;;;;;;;9.00;6.07;;;;;;;;;;5034739;28;20552;-86
2022/03/22 02:47:26;;;;;;;10.80;6.60;;;;;;;;;;5034495;28;20962;-87
2022/03/22 02:50:30;;;;;;;11.87;7.13;;;;;;;;;;5036796;28;20599;-85
2022/03/22 02:53:35;;;;;;;14.07;7.57;;;;;;;;;;5037385;28;20603;-84
2022/03/22 02:56:39;;;;;;;10.97;7.33;;;;;;;;;;5026576;28;20623;-84
2022/03/22 02:59:43;;;;;;;11.17;7.30;;;;;;;;;;5026160;28;20646;-84
2022/03/22 03:02:49;;;;;;;10.40;7.10;;;;;;;;;;5049284;28;20595;-85
2022/03/22 03:05:54;;;;;;;9.27;6.07;;;;;;;;;;5030969;28;20547;-85
2022/03/22 03:08:59;;;;;;;9.03;5.80;;;;;;;;;;5058029;28;20516;-85
2022/03/22 03:12:05;;;;;;;9.40;6.10;;;;;;;;;;5047322;28;20540;-85
2022/03/22 03:15:10;;;;;;;9.67;5.80;;;;;;;;;;5046550;28;20548;-85
2022/03/22 03:18:15;;;;;;;11.10;5.63;;;;;;;;;;5046381;28;20596;-85
2022/03/22 03:21:19;;;;;;;10.27;5.47;;;;;;;;;;5046019;28;20607;-85
2022/03/22 03:24:24;;;;;;;9.00;5.10;;;;;;;;;;5045034;28;20602;-85
2022/03/22 03:27:28;;;;;;;8.73;4.97;;;;;;;;;;5044401;28;20623;-85
2022/03/22 03:30:34;;;;;;;9.47;5.50;;;;;;;;;;5054859;28;20548;-85
2022/03/22 03:33:39;;;;;;;9.20;5.33;;;;;;;;;;5032751;28;21058;-85
2022/03/22 03:36:43;;;;;;;10.03;5.80;;;;;;;;;;5032024;28;20627;-85
2022/03/22 03:39:47;;;;;;;8.60;5.47;;;;;;;;;;5031698;28;20954;-85
2022/03/22 03:42:51;;;;;;;8.40;5.40;;;;;;;;;;5042779;28;21141;-85
2022/03/22 03:49:18;;;;;;;8.43;5.73;;;;;;;;;;5053692;28;20544;-85
2022/03/22 03:52:28;;;;;;;8.23;5.10;;;;;;;;;;5041840;28;20595;-85
2022/03/22 03:55:32;;;;;;;8.73;5.40;;;;;;;;;;5053189;28;20893;-85
2022/03/22 03:58:36;;;;;;;10.03;6.03;;;;;;;;;;5041396;28;20544;-85
2022/03/22 04:01:40;;;;;;;8.57;5.37;;;;;;;;;;5040538;28;20555;-85
2022/03/22 04:04:51;;;;;;;11.13;5.50;;;;;;;;;;5029001;28;20548;-85
2022/03/22 04:07:55;;;;;;;7.93;5.57;;;;;;;;;;5027881;28;20757;-85
2022/03/22 04:11:00;;;;;;;7.13;5.13;;;;;;;;;;5051014;28;20599;-85
2022/03/22 04:14:04;;;;;;;7.77;5.07;;;;;;;;;;5028500;28;20540;-85
2022/03/22 04:17:09;;;;;;;8.87;5.40;;;;;;;;;;5038947;28;20611;-85
2022/03/22 04:20:13;;;;;;;9.20;5.30;;;;;;;;;;5015544;28;20595;-85
2022/03/22 04:23:17;;;;;;;12.00;5.50;;;;;;;;;;5027451;28;20899;-85
2022/03/22 04:26:21;;;;;;;9.03;5.43;;;;;;;;;;5027427;28;20625;-85
2022/03/22 04:32:48;;;;;;;8.10;4.70;;;;;;;;;;5048925;28;20560;-85
2022/03/22 04:35:53;;;;;;;6.60;4.90;;;;;;;;;;5027079;28;20536;-85
2022/03/22 04:38:57;;;;;;;13.80;5.60;;;;;;;;;;5037197;28;20596;-85
2022/03/22 04:42:02;;;;;;;10.13;5.23;;;;;;;;;;5049203;28;20552;-85
2022/03/22 04:45:06;;;;;;;7.97;5.20;;;;;;;;;;5037622;28;21129;-85
2022/03/22 04:48:13;;;;;;;8.07;5.17;;;;;;;;;;5025549;28;20540;-85
2022/03/22 04:58:04;;;;;;;7.77;5.67;;;;;;;;;;5037080;28;20642;-85
2022/03/22 05:01:08;;;;;;;11.93;5.77;;;;;;;;;;5036874;28;20548;-85
2022/03/22 05:04:12;;;;;;;9.67;5.23;;;;;;;;;;5024346;28;20620;-84
2022/03/22 05:07:16;;;;;;;7.47;5.23;;;;;;;;;;5023796;28;20643;-84
2022/03/22 05:10:21;;;;;;;12.07;5.27;;;;;;;;;;5034526;28;20603;-84
2022/03/22 05:13:25;;;;;;;8.73;5.53;;;;;;;;;;5047613;28;20554;-84
2022/03/22 05:16:29;;;;;;;8.10;5.60;;;;;;;;;;5036333;28;20971;-84
2022/03/22 05:19:34;;;;;;;6.20;5.27;;;;;;;;;;5017445;28;21136;-84
2022/03/22 05:22:39;;;;;;;8.93;5.40;;;;;;;;;;5040500;28;20556;-84
2022/03/22 05:25:44;;;;;;;10.80;5.33;;;;;;;;;;5040875;28;20540;-84
2022/03/22 05:28:48;;;;;;;8.50;4.90;;;;;;;;;;5041153;28;20546;-84
2022/03/22 05:31:54;;;;;;;7.93;5.47;;;;;;;;;;5040909;28;20880;-84
2022/03/22 05:34:59;;;;;;;7.67;4.90;;;;;;;;;;5040086;28;20540;-85
2022/03/22 05:38:03;;;;;;;8.30;5.80;;;;;;;;;;5038120;28;20623;-83
2022/03/22 05:41:08;;;;;;;9.53;5.70;;;;;;;;;;5037051;28;20939;-83
2022/03/22 05:44:12;;;;;;;7.93;5.30;;;;;;;;;;5037975;28;20543;-83
2022/03/22 05:47:17;;;;;;;8.43;5.20;;;;;;;;;;5037616;28;20619;-85
2022/03/22 05:50:21;;;;;;;7.83;5.50;;;;;;;;;;5039469;28;21070;-85
2022/03/22 05:53:25;;;;;;;13.13;5.40;;;;;;;;;;5039127;28;20556;-86
2022/03/22 05:56:29;;;;;;;9.40;5.63;;;;;;;;;;5024591;28;20615;-86
2022/03/22 05:59:33;;;;;;;18.00;7.20;;;;;;;;;;5038766;28;20595;-85
2022/03/22 06:02:39;;;;;;;10.03;6.40;;;;;;;;;;5051227;28;20548;-85
2022/03/22 06:05:44;;;;;;;10.70;6.60;;;;;;;;;;5050784;28;20536;-85
2022/03/22 06:08:50;;;;;;;20.47;11.63;;;;;;;;;;5038131;28;20548;-84
2022/03/22 06:11:54;;;;;;;20.10;12.53;;;;;;;;;;5027049;28;20600;-84
2022/03/22 06:15:14;;;;;;;19.33;11.20;;;;;;;;;;5038305;28;20555;-85
2022/03/22 06:18:18;;;;;;;20.03;10.90;;;;;;;;;;5049353;28;20564;-84
2022/03/22 06:21:22;;;;;;;10.97;8.17;;;;;;;;;;5037427;28;20660;-84
2022/03/22 06:24:27;;;;;;;11.87;6.97;;;;;;;;;;5037569;28;21153;-85
2022/03/22 06:27:33;;;;;;;16.07;7.70;;;;;;;;;;5026658;28;20631;-84
2022/03/22 06:30:37;;;;;;;11.87;7.40;;;;;;;;;;5048544;28;20599;-84
2022/03/22 06:33:41;;;;;;;12.83;8.53;;;;;;;;;;5049443;28;20539;-84
2022/03/22 06:36:46;;;;;;;13.17;9.27;;;;;;;;;;5026764;28;20611;-84
2022/03/22 06:39:50;;;;;;;11.67;7.97;;;;;;;;;;5026703;28;20651;-85
2022/03/22 06:42:56;;;;;;;13.40;8.57;;;;;;;;;;5026470;28;21168;-85
2022/03/22 06:46:00;;;;;;;14.27;8.97;;;;;;;;;;5047432;28;20553;-85
2022/03/22 06:49:05;;;;;;;12.33;7.90;;;;;;;;;;5055244;28;20544;-85
2022/03/22 06:52:10;;;;;;;17.10;8.93;;;;;;;;;;5034710;28;20548;-85
2022/03/22 06:55:22;;;;;;;16.13;9.13;;;;;;;;;;5056830;28;20540;-85
2022/03/22 06:58:27;;;;;;;14.07;9.13;;;;;;;;;;5045655;28;20544;-85
2022/03/22 07:01:31;;;;;;;21.50;9.03;;;;;;;;;;5034171;28;20603;-85
2022/03/22 07:04:36;;;;;;;21.77;8.87;;;;;;;;;;5032303;28;20598;-85
2022/03/22 07:07:40;;;;;;;11.63;7.63;;;;;;;;;;5028089;28;21220;-83
2022/03/22 07:11:47;;;;;;;11.53;7.33;;;;;;;;;;5049034;28;20532;-83
2022/03/22 07:14:09;;;;;;;11.60;7.30;;;;;;;;;;5037820;28;20611;-83
2022/03/22 07:17:13;;;;;;;10.93;7.10;;;;;;;;;;5024786;28;21180;-84
2022/03/22 07:20:17;;;;;;;10.73;7.43;;;;;;;;;;5036104;28;20208;-83
2022/03/22 07:23:21;;;;;;;11.67;7.50;;;;;;;;;;5024789;28;20173;-83
2022/03/22 07:26:26;;;;;;;14.97;8.53;;;;;;;;;;5036211;28;20212;-83
2022/03/22 07:29:31;;;;;;;13.93;7.83;;;;;;;;;;5036575;28;20184;-83
2022/03/22 07:32:35;;;;;;;12.57;7.07;;;;;;;;;;5046531;28;20181;-83
2022/03/22 07:35:40;;;;;;;10.47;7.20;;;;;;;;;;5023801;28;20184;-83
2022/03/22 07:38:44;;;;;;;9.73;6.93;;;;;;;;;;5035125;28;20197;-86
2022/03/22 07:41:49;;;;;;;10.37;6.90;;;;;;;;;;5022181;28;20679;-86
2022/03/22 07:44:58;;;;;;;7.73;5.40;;;;;;;;;;5022296;28;20184;-86
2022/03/22 07:48:03;;;;;;;9.30;5.00;;;;;;;;;;5033589;28;20220;-86
2022/03/22 07:54:30;;;;;;;8.37;5.83;;;;;;;;;;5033507;28;20189;-86
2022/03/22 07:57:34;;;;;;;6.80;5.30;;;;;;;;;;5032946;28;20216;-86
2022/03/22 08:00:41;;;;;;;12.50;5.60;;;;;;;;;;5021840;28;20225;-87
2022/03/22 08:03:46;;;;;;;16.17;5.70;;;;;;;;;;5022288;28;20546;-86
2022/03/22 08:06:51;;;;;;;15.23;5.60;;;;;;;;;;5021853;28;20721;-86
2022/03/22 08:09:55;;;;;;;9.57;5.33;;;;;;;;;;5022206;28;20184;-86
2022/03/22 08:12:59;;;;;;;8.10;5.03;;;;;;;;;;5022017;28;20205;-86
2022/03/22 08:16:05;;;;;;;8.17;5.30;;;;;;;;;;5021433;28;20216;-86
2022/03/22 08:19:11;;;;;;;9.63;5.30;;;;;;;;;;5021950;28;20181;-86
2022/03/22 08:22:15;;;;;;;8.23;4.77;;;;;;;;;;5033207;28;20177;-86
2022/03/22 08:25:29;;;;;;;7.13;5.23;;;;;;;;;;5021754;28;20644;-86
2022/03/22 08:28:33;;;;;;;7.37;4.87;;;;;;;;;;5021757;28;20185;-86
2022/03/22 08:31:37;;;;;;;7.77;5.70;;;;;;;;;;5045324;28;20200;-83
2022/03/22 08:34:41;;;;;;;6.00;4.77;;;;;;;;;;5022495;28;20192;-83
2022/03/22 08:37:46;;;;;;;11.27;5.13;;;;;;;;;;5033750;28;20216;-83
2022/03/22 08:40:51;;;;;;;7.03;5.23;;;;;;;;;;5022615;28;20211;-83
2022/03/22 08:43:56;;;;;;;6.93;5.10;;;;;;;;;;5046023;28;20521;-83
2022/03/22 08:47:01;;;;;;;6.20;4.70;;;;;;;;;;5022707;28;20678;-83
2022/03/22 08:50:05;;;;;;;10.20;5.40;;;;;;;;;;5045289;28;20196;-83
2022/03/22 08:53:11;;;;;;;6.90;5.37;;;;;;;;;;5037834;28;20188;-83
2022/03/22 08:56:15;;;;;;;7.67;5.27;;;;;;;;;;5029340;28;20220;-84
2022/03/22 08:59:19;;;;;;;8.67;5.03;;;;;;;;;;5029108;28;20176;-84
2022/03/22 09:02:23;;;;;;;7.07;5.27;;;;;;;;;;5040386;28;20517;-84
2022/03/22 09:08:50;;;;;;;7.30;5.43;;;;;;;;;;5040989;28;20185;-84
2022/03/22 09:11:55;;;;;;;9.17;5.63;;;;;;;;;;5040594;28;20177;-84
2022/03/22 09:14:59;;;;;;;7.20;5.10;;;;;;;;;;5028952;28;20176;-84
2022/03/22 09:18:03;;;;;;;7.80;5.47;;;;;;;;;;5028774;28;20219;-84
2022/03/22 09:21:10;;;;;;;8.47;5.17;;;;;;;;;;5040087;28;20208;-83
2022/03/22 09:24:14;;;;;;;10.13;5.40;;;;;;;;;;5040250;28;20532;-84
2022/03/22 09:27:19;;;;;;;7.80;5.40;;;;;;;;;;5039959;28;20227;-84
2022/03/22 09:30:25;;;;;;;6.57;4.70;;;;;;;;;;5028601;28;20180;-84
2022/03/22 09:33:30;;;;;;;8.27;5.23;;;;;;;;;;5039947;28;20180;-84
2022/03/22 09:36:35;;;;;;;7.27;5.20;;;;;;;;;;5040347;28;20552;-84
2022/03/22 09:39:39;;;;;;;5.73;5.07;;;;;;;;;;5040764;28;20185;-84
2022/03/22 09:42:45;;;;;;;7.33;4.93;;;;;;;;;;5040504;28;20177;-83
2022/03/22 09:45:51;;;;;;;6.83;5.80;;;;;;;;;;5039815;28;20177;-84
2022/03/22 09:48:57;;;;;;;6.40;4.90;;;;;;;;;;5028768;28;20644;-83
2022/03/22 09:52:02;;;;;;;6.40;5.00;;;;;;;;;;5040475;28;20176;-84
2022/03/22 09:55:08;;;;;;;6.53;5.20;;;;;;;;;;5028946;28;20185;-84
2022/03/22 09:58:13;;;;;;;8.50;4.57;;;;;;;;;;5028587;28;20181;-84
2022/03/22 10:01:17;;;;;;;10.70;5.20;;;;;;;;;;5028631;28;20216;-84
2022/03/22 10:04:21;;;;;;;8.07;5.30;;;;;;;;;;5037609;28;20173;-87
2022/03/22 10:07:27;;;;;;;8.53;4.80;;;;;;;;;;5024656;28;20224;-84
2022/03/22 10:10:31;;;;;;;5.93;4.77;;;;;;;;;;5035665;28;20180;-86
2022/03/22 10:13:49;;;;;;;6.50;4.70;;;;;;;;;;5037107;28;20177;-81
2022/03/22 10:16:53;;;;;;;6.13;5.10;;;;;;;;;;5036576;28;20216;-83
2022/03/22 10:19:57;;;;;;;7.67;5.20;;;;;;;;;;5036551;28;20620;-85
2022/03/22 10:23:03;;;;;;;8.90;5.33;;;;;;;;;;5025638;28;20173;-84
2022/03/22 10:26:09;;;;;;;6.57;5.50;;;;;;;;;;5039606;28;20220;-84
2022/03/22 10:29:14;;;;;;;6.27;5.13;;;;;;;;;;5024840;28;20172;-83
2022/03/22 10:32:39;;;;;;;7.57;4.63;;;;;;;;;;5038803;28;20177;-86
2022/03/22 10:35:45;;;;;;;9.13;4.77;;;;;;;;;;5035676;28;20177;-85
2022/03/22 10:38:59;;;;;;;6.30;4.93;;;;;;;;;;5027482;28;20193;-86
2022/03/22 10:42:06;;;;;;;6.43;4.43;;;;;;;;;;5037169;28;20208;-85
2022/03/22 10:45:11;;;;;;;8.83;5.37;;;;;;;;;;5048656;28;20176;-83
2022/03/22 10:48:20;;;;;;;7.00;4.73;;;;;;;;;;5040611;28;20181;-85
2022/03/22 10:51:50;;;;;;;7.73;5.63;;;;;;;;;;5036181;28;20173;-85
2022/03/22 10:54:55;;;;;;;6.67;4.43;;;;;;;;;;5014759;28;20177;-84
2022/03/22 10:58:01;;;;;;;9.37;4.60;;;;;;;;;;5047839;28;20228;-84
2022/03/22 11:01:06;;;;;;;7.90;4.67;;;;;;;;;;5013928;28;20672;-84
2022/03/22 11:04:15;;;;;;;4.93;4.30;;;;;;;;;;5038778;28;20181;-82
2022/03/22 11:07:20;;;;;;;6.27;4.30;;;;;;;;;;5025539;28;20229;-83
2022/03/22 11:10:28;;;;;;;9.33;5.37;;;;;;;;;;5049438;28;20185;-81
2022/03/22 11:13:33;;;;;;;7.40;4.30;;;;;;;;;;5026722;28;20636;-84
2022/03/22 11:16:39;;;;;;;8.10;4.80;;;;;;;;;;5024396;28;20565;-84
2022/03/22 11:19:44;;;;;;;9.93;4.90;;;;;;;;;;5023931;28;20660;-85
2022/03/22 11:22:50;;;;;;;8.97;4.53;;;;;;;;;;5037173;28;20213;-84
2022/03/22 11:25:54;;;;;;;7.10;4.33;;;;;;;;;;5011593;28;20176;-84
2022/03/22 11:28:59;;;;;;;7.63;4.67;;;;;;;;;;5036483;28;20509;-84
2022/03/22 11:35:29;;;;;;;8.33;4.80;;;;;;;;;;5034636;28;20620;-84
2022/03/22 11:38:36;;;;;;;7.03;4.47;;;;;;;;;;5036050;28;20177;-82
2022/03/22 11:45:08;;;;;;;8.93;5.07;;;;;;;;;;5023354;28;20185;-83
2022/03/22 11:48:13;;;;;;;6.83;5.20;;;;;;;;;;5034735;28;20181;-84
2022/03/22 11:51:23;;;;;;;6.83;4.67;;;;;;;;;;5034064;28;20169;-84
2022/03/22 11:54:28;;;;;;;8.07;5.03;;;;;;;;;;5025120;28;20181;-82
2022/03/22 11:57:53;;;;;;;7.27;5.30;;;;;;;;;;5023924;28;20215;-83
2022/03/22 12:01:00;;;;;;;8.67;5.50;;;;;;;;;;5045760;28;20526;-84
2022/03/22 12:04:15;;;;;;;9.27;6.03;;;;;;;;;;5023980;28;20200;-83
2022/03/22 12:07:28;;;;;;;8.37;5.60;;;;;;;;;;5011316;28;20572;-84
2022/03/22 12:10:32;;;;;;;11.93;5.87;;;;;;;;;;5011415;28;20173;-84
2022/03/22 12:13:45;;;;;;;6.40;5.33;;;;;;;;;;5023487;28;20212;-84
2022/03/22 12:16:53;;;;;;;5.70;5.10;;;;;;;;;;5045500;28;20216;-84
2022/03/22 12:19:59;;;;;;;7.20;5.30;;;;;;;;;;5033991;28;20197;-84
2022/03/22 12:23:06;;;;;;;8.47;5.50;;;;;;;;;;5025053;28;20216;-82
2022/03/22 12:26:11;;;;;;;5.83;5.23;;;;;;;;;;5049714;28;20216;-82
2022/03/22 12:29:15;;;;;;;6.80;5.37;;;;;;;;;;5046208;28;20655;-84
2022/03/22 12:32:21;;;;;;;10.13;5.20;;;;;;;;;;5023179;28;20172;-84
2022/03/22 12:35:25;;;;;;;9.20;5.60;;;;;;;;;;5025575;28;20184;-85
2022/03/22 12:38:29;;;;;;;6.13;5.30;;;;;;;;;;5011357;28;20181;-84
2022/03/22 12:41:34;;;;;;;7.20;5.30;;;;;;;;;;5022183;28;20683;-84
2022/03/22 12:44:38;;;;;;;7.03;5.20;;;;;;;;;;5025758;28;20196;-82
2022/03/22 12:47:44;;;;;;;6.90;5.63;;;;;;;;;;5012582;28;20216;-84
2022/03/22 12:50:49;;;;;;;5.87;4.83;;;;;;;;;;5033991;28;20200;-84
2022/03/22 12:53:54;;;;;;;6.10;5.20;;;;;;;;;;5022798;28;20169;-84
2022/03/22 12:57:00;;;;;;;7.43;5.10;;;;;;;;;;5035488;28;20706;-84
2022/03/22 13:00:06;;;;;;;9.13;5.37;;;;;;;;;;5021754;28;20172;-84
2022/03/22 13:03:19;;;;;;;7.37;5.60;;;;;;;;;;5033218;28;20205;-84
2022/03/22 13:06:24;;;;;;;8.07;5.57;;;;;;;;;;5046747;28;20224;-84
2022/03/22 13:12:51;;;;;;;7.03;5.60;;;;;;;;;;5033879;28;20181;-84
2022/03/22 13:15:57;;;;;;;7.53;5.80;;;;;;;;;;5034162;28;20185;-84
2022/03/22 13:19:02;;;;;;;7.70;6.03;;;;;;;;;;5021761;28;20177;-83
2022/03/22 13:22:16;;;;;;;8.77;5.60;;;;;;;;;;5033296;28;20212;-84
2022/03/22 13:25:30;;;;;;;8.43;5.37;;;;;;;;;;5033201;28;20197;-84
2022/03/22 13:28:34;;;;;;;6.03;5.17;;;;;;;;;;5011028;28;20181;-84
2022/03/22 13:31:38;;;;;;;8.00;5.27;;;;;;;;;;5044653;28;20185;-85
2022/03/22 13:34:47;;;;;;;6.50;5.27;;;;;;;;;;5033098;28;20185;-84
2022/03/22 13:37:53;;;;;;;8.37;5.37;;;;;;;;;;5032224;28;20220;-88
2022/03/22 13:41:03;;;;;;;6.03;4.93;;;;;;;;;;5024743;28;20177;-86
2022/03/22 13:44:07;;;;;;;7.33;5.33;;;;;;;;;;5027269;28;20181;-82
2022/03/22 13:47:30;;;;;;;7.10;4.77;;;;;;;;;;5025256;28;20220;-83
2022/03/22 13:50:36;;;;;;;8.03;4.53;;;;;;;;;;5037473;28;20501;-82
2022/03/22 13:53:39;;;;;;;7.17;5.23;;;;;;;;;;5049062;28;20177;-83
2022/03/22 13:56:44;;;;;;;10.13;4.60;;;;;;;;;;5036643;28;20216;-84
2022/03/22 13:59:56;;;;;;;5.77;4.53;;;;;;;;;;5047503;28;20677;-85
2022/03/22 14:03:00;;;;;;;9.33;4.70;;;;;;;;;;5037191;28;20212;-83
2022/03/22 14:06:04;;;;;;;5.00;4.50;;;;;;;;;;5025444;28;20232;-84
2022/03/22 14:09:08;;;;;;;9.53;3.90;;;;;;;;;;5025590;28;20177;-84
2022/03/22 14:12:12;;;;;;;6.37;4.33;;;;;;;;;;5036237;28;20188;-85
2022/03/22 14:15:17;;;;;;;8.03;4.33;;;;;;;;;;5027556;28;20197;-82
2022/03/22 14:18:22;;;;;;;7.83;4.27;;;;;;;;;;5040667;28;20556;-84
2022/03/22 14:21:26;;;;;;;6.37;4.50;;;;;;;;;;5024922;28;20173;-84
2022/03/22 14:24:32;;;;;;;5.87;4.03;;;;;;;;;;5036478;28;20180;-84
2022/03/22 14:27:37;;;;;;;8.93;4.73;;;;;;;;;;5024755;28;20216;-84
2022/03/22 14:30:41;;;;;;;5.33;4.10;;;;;;;;;;5013894;28;20189;-83
2022/03/22 14:33:45;;;;;;;5.17;4.33;;;;;;;;;;5037533;28;20505;-82
2022/03/22 14:36:49;;;;;;;7.93;4.53;;;;;;;;;;5014746;28;20220;-84
2022/03/22 14:39:54;;;;;;;7.23;4.40;;;;;;;;;;5023854;28;20177;-85
2022/03/22 14:42:59;;;;;;;4.83;4.27;;;;;;;;;;5036441;28;20205;-84
2022/03/22 14:46:03;;;;;;;5.97;4.87;;;;;;;;;;5036233;28;20228;-85
2022/03/22 14:49:08;;;;;;;6.47;4.33;;;;;;;;;;5046677;28;20177;-84
2022/03/22 14:55:35;;;;;;;5.73;4.90;;;;;;;;;;5046964;28;20177;-83
2022/03/22 14:58:52;;;;;;;7.53;5.07;;;;;;;;;;5023526;28;20181;-84
2022/03/22 15:01:56;;;;;;;6.23;4.30;;;;;;;;;;5035724;28;20181;-83
2022/03/22 15:05:17;;;;;;;5.80;4.53;;;;;;;;;;5023530;28;20180;-84
2022/03/22 15:08:27;;;;;;;5.40;4.53;;;;;;;;;;5023593;28;20173;-84
2022/03/22 15:11:33;;;;;;;6.50;4.73;;;;;;;;;;5023481;28;20197;-84
2022/03/22 15:14:37;;;;;;;4.90;4.17;;;;;;;;;;5022757;28;20196;-82
2022/03/22 15:17:41;;;;;;;6.23;4.40;;;;;;;;;;5024173;28;20217;-85
2022/03/22 15:20:45;;;;;;;9.60;4.90;;;;;;;;;;5036694;28;20505;-83
2022/03/22 15:23:50;;;;;;;10.30;4.53;;;;;;;;;;5046740;28;20200;-84
2022/03/22 15:26:54;;;;;;;6.50;4.60;;;;;;;;;;5034008;28;20217;-85
2022/03/22 15:29:58;;;;;;;5.97;4.10;;;;;;;;;;5035548;28;20176;-85
2022/03/22 15:33:03;;;;;;;5.83;4.57;;;;;;;;;;5034577;28;20181;-82
2022/03/22 15:36:09;;;;;;;6.93;4.23;;;;;;;;;;5034362;28;20208;-84
2022/03/22 15:39:13;;;;;;;7.27;4.93;;;;;;;;;;5022741;28;20188;-86
2022/03/22 15:42:18;;;;;;;5.50;4.57;;;;;;;;;;5045258;28;20205;-84
2022/03/22 15:45:23;;;;;;;8.80;4.60;;;;;;;;;;5046032;28;20185;-82
2022/03/22 15:48:27;;;;;;;5.17;4.30;;;;;;;;;;5046372;28;20185;-84
2022/03/22 15:51:31;;;;;;;5.17;4.50;;;;;;;;;;5022544;28;20180;-84
2022/03/22 15:54:37;;;;;;;5.90;4.20;;;;;;;;;;5045065;28;20176;-84
2022/03/22 15:57:42;;;;;;;5.97;4.07;;;;;;;;;;5033597;28;20212;-84
2022/03/22 16:00:47;;;;;;;6.60;4.20;;;;;;;;;;5022416;28;20173;-84
2022/03/22 16:03:52;;;;;;;6.03;4.37;;;;;;;;;;5033412;28;20204;-85
2022/03/22 16:06:56;;;;;;;5.63;4.60;;;;;;;;;;5033557;28;20220;-84
2022/03/22 16:10:00;;;;;;;4.83;4.07;;;;;;;;;;5023082;28;20185;-82
2022/03/22 16:13:04;;;;;;;7.03;3.80;;;;;;;;;;5022572;28;20181;-82
2022/03/22 16:16:15;;;;;;;4.50;3.80;;;;;;;;;;5022402;28;20552;-84
2022/03/22 16:19:20;;;;;;;4.37;3.83;;;;;;;;;;5022706;28;20185;-85
2022/03/22 16:22:24;;;;;;;7.00;4.17;;;;;;;;;;5032883;28;20177;-84
2022/03/22 16:25:29;;;;;;;8.90;4.00;;;;;;;;;;5022123;28;20176;-84
2022/03/22 16:28:33;;;;;;;7.97;4.07;;;;;;;;;;5044558;28;20189;-84
2022/03/22 16:31:37;;;;;;;8.47;3.90;;;;;;;;;;5044915;28;20180;-84
2022/03/22 16:38:04;;;;;;;4.60;3.80;;;;;;;;;;5021005;28;20224;-84
2022/03/22 16:41:08;;;;;;;5.60;3.70;;;;;;;;;;5033043;28;20517;-85
2022/03/22 16:44:12;;;;;;;4.63;3.87;;;;;;;;;;5032857;28;20213;-85
2022/03/22 16:47:18;;;;;;;6.73;3.70;;;;;;;;;;5032339;28;20216;-85
2022/03/22 16:50:22;;;;;;;7.07;4.03;;;;;;;;;;5009512;28;20200;-85
2022/03/22 16:53:27;;;;;;;7.43;3.43;;;;;;;;;;5021404;28;20647;-85
2022/03/22 16:56:31;;;;;;;7.00;3.40;;;;;;;;;;5044015;28;20217;-84
2022/03/22 16:59:35;;;;;;;5.97;3.50;;;;;;;;;;5033175;28;20181;-84
2022/03/22 17:02:40;;;;;;;4.70;3.53;;;;;;;;;;5032668;28;20208;-84
2022/03/22 17:05:45;;;;;;;6.03;3.60;;;;;;;;;;5021226;28;20295;-84
2022/03/22 17:08:49;;;;;;;3.97;3.50;;;;;;;;;;5021127;28;20530;-84
2022/03/22 17:11:53;;;;;;;4.73;3.60;;;;;;;;;;5044903;28;20188;-84
2022/03/22 17:14:57;;;;;;;8.13;3.43;;;;;;;;;;5024814;28;20192;-84
2022/03/22 17:18:02;;;;;;;6.00;4.07;;;;;;;;;;5024872;28;20212;-85
2022/03/22 17:21:06;;;;;;;6.73;3.20;;;;;;;;;;5025092;28;20636;-85
2022/03/22 17:24:11;;;;;;;7.97;3.03;;;;;;;;;;5048598;28;20220;-85
2022/03/22 17:27:14;;;;;;;4.30;3.23;;;;;;;;;;5036825;28;20552;-85
2022/03/22 17:30:19;;;;;;;5.47;3.17;;;;;;;;;;5036283;28;20181;-85
2022/03/22 17:33:23;;;;;;;5.70;2.83;;;;;;;;;;5036330;28;20177;-85
2022/03/22 17:36:27;;;;;;;5.37;3.40;;;;;;;;;;5025108;28;20679;-85
2022/03/22 17:39:31;;;;;;;4.17;3.23;;;;;;;;;;5047872;28;20185;-86
2022/03/22 17:42:36;;;;;;;6.20;2.83;;;;;;;;;;5036334;28;20177;-86
2022/03/22 17:45:41;;;;;;;5.17;3.23;;;;;;;;;;5035916;28;20605;-85
2022/03/22 17:48:44;;;;;;;5.97;3.20;;;;;;;;;;5036202;28;20184;-85
2022/03/22 17:51:49;;;;;;;3.90;2.87;;;;;;;;;;5024318;28;20177;-85
2022/03/22 17:54:53;;;;;;;3.43;3.13;;;;;;;;;;5024822;28;20173;-85
2022/03/22 17:57:57;;;;;;;3.93;3.10;;;;;;;;;;5047444;28;20213;-85
2022/03/22 18:01:01;;;;;;;3.87;3.00;;;;;;;;;;5024657;28;20184;-85
2022/03/22 18:04:06;;;;;;;3.50;2.80;;;;;;;;;;5047110;28;20217;-85
2022/03/22 18:07:11;;;;;;;10.27;4.50;;;;;;;;;;5036698;28;20691;-83
2022/03/22 18:10:16;;;;;;;5.97;3.70;;;;;;;;;;5027163;28;20521;-84
2022/03/22 18:13:20;;;;;;;4.73;2.97;;;;;;;;;;5027422;28;20177;-86
2022/03/22 18:16:24;;;;;;;3.67;2.97;;;;;;;;;;5025670;28;20217;-84
2022/03/22 18:19:29;;;;;;;4.20;3.30;;;;;;;;;;5037477;28;20196;-84
2022/03/22 18:22:36;;;;;;;5.37;2.97;;;;;;;;;;5028696;28;20533;-83
2022/03/22 18:25:40;;;;;;;5.47;3.03;;;;;;;;;;5036101;28;20173;-83
2022/03/22 18:28:44;;;;;;;3.83;2.90;;;;;;;;;;5027468;28;20184;-83
2022/03/22 18:31:49;;;;;;;4.03;3.03;;;;;;;;;;5027695;28;20193;-83
2022/03/22 18:34:53;;;;;;;5.13;3.00;;;;;;;;;;5036476;28;20193;-82
2022/03/22 18:37:57;;;;;;;6.10;3.43;;;;;;;;;;5036905;28;20220;-83
2022/03/22 18:41:02;;;;;;;4.70;3.23;;;;;;;;;;5026665;28;20200;-83
2022/03/22 18:44:06;;;;;;;5.20;3.30;;;;;;;;;;5015378;28;20224;-83
2022/03/22 18:47:11;;;;;;;3.53;2.83;;;;;;;;;;5026334;28;20679;-83
2022/03/22 18:50:16;;;;;;;3.90;2.93;;;;;;;;;;5027333;28;20533;-83
2022/03/22 18:53:20;;;;;;;4.60;3.20;;;;;;;;;;5039641;28;20197;-83
2022/03/22 18:56:24;;;;;;;5.13;3.70;;;;;;;;;;5027771;28;20224;-83
2022/03/22 18:59:29;;;;;;;4.47;3.57;;;;;;;;;;5039411;28;20181;-83
2022/03/22 19:02:33;;;;;;;5.77;3.40;;;;;;;;;;5051030;28;20200;-83
2022/03/22 19:05:38;;;;;;;4.23;3.00;;;;;;;;;;5027683;28;20663;-83
2022/03/22 19:08:45;;;;;;;4.07;3.23;;;;;;;;;;5027514;28;20181;-83